Terminal Aerodrome Forecast
Issued by NWS Sioux Falls, SD

Home | Current Version | Previous Version | Text Only | Print | Product List | Glossary On
Versions: 1 2 3 4 5 6 7 8 9 10 11 12 13 14
000
FTUS43 KFSD 310540
TAFHON
TAF
KHON 310540Z 3106/0106 15012KT P6SM BKN250
      TEMPO 3107/3109 VRB25KT -SHRA BKN080
     FM311500 27010KT P6SM SCT025
     FM312000 31007KT P6SM VCTS BKN040CB OVC070
     FM010300 32005KT P6SM BKN070=

USA.gov is the U.S. government's official web portal to all federal, state and local government web resources and services.